Portada
METAR-TAF:

METAR-TAF

Aeroports :

Monroe, Carolina del Nord, Estats Units d'Amèrica

latitud: 35-01-01N, longitud: 080-37-14W, altitud: 207 m

Observació

L'informe es va fer fa 14 minuts, a les 00:53 UTC
Vent 4 kt del Sud/Sud-Oest
Temperatura 26°C
Humitat 79%
Pressió 1016 hPa
Visibilitat: 16.1 km
Cel clar

METAR: KEQY 110053Z AUTO 20004KT 10SM CLR 26/22 A2999 RMK AO2 SLP151 T02560217

Hora: 21:07 (01:07 UTC)


TAF: manca

Observacions i pronòstics meteorològics de més de 4000 aeroports (METAR i TAF).

Les estacions disponibles són els punts grocs i vermells al mapa.

Posi el ratolí al punt desitjat per veure el nom de l'estació.

Feu clic per veure les observacions i els pronòstics meteorològics.

Per canviar el mapa: feu clic els botons verds amb una creu de color negre per apropar; al botó verd amb un guió per allunyar la imatge; o en les fletxes verdes per a mapes adjacents.


METAR-TAF: